sensor_id;sensor_type;location;lat;lon;timestamp;pressure;altitude;pressure_sealevel;temperature;humidity
69153;BME280;56261;51.580;4.578;2023-01-19T00:02:13;100291.44;;;2.19;100.00
69153;BME280;56261;51.580;4.578;2023-01-19T00:04:38;100293.44;;;2.26;100.00
69153;BME280;56261;51.580;4.578;2023-01-19T00:07:03;100282.31;;;2.23;100.00
69153;BME280;56261;51.580;4.578;2023-01-19T00:09:31;100289.59;;;2.31;100.00
69153;BME280;56261;51.580;4.578;2023-01-19T00:11:58;100285.66;;;2.25;100.00
69153;BME280;56261;51.580;4.578;2023-01-19T00:14:23;100282.63;;;2.29;100.00
69153;BME280;56261;51.580;4.578;2023-01-19T00:16:49;100279.22;;;2.39;100.00
69153;BME280;56261;51.580;4.578;2023-01-19T00:19:14;100275.53;;;2.41;100.00
69153;BME280;56261;51.580;4.578;2023-01-19T00:21:39;100276.34;;;2.42;100.00
69153;BME280;56261;51.580;4.578;2023-01-19T00:24:05;100281.59;;;2.42;100.00
69153;BME280;56261;51.580;4.578;2023-01-19T00:26:30;100280.25;;;2.47;100.00
69153;BME280;56261;51.580;4.578;2023-01-19T00:28:56;100281.09;;;2.48;100.00
69153;BME280;56261;51.580;4.578;2023-01-19T00:31:21;100279.41;;;2.47;100.00
69153;BME280;56261;51.580;4.578;2023-01-19T00:33:47;100276.97;;;2.55;100.00
69153;BME280;56261;51.580;4.578;2023-01-19T00:36:13;100282.94;;;2.57;100.00
69153;BME280;56261;51.580;4.578;2023-01-19T00:38:39;100277.38;;;2.60;100.00
69153;BME280;56261;51.580;4.578;2023-01-19T00:41:05;100289.91;;;2.68;100.00
69153;BME280;56261;51.580;4.578;2023-01-19T00:43:30;100289.75;;;2.69;100.00
69153;BME280;56261;51.580;4.578;2023-01-19T00:45:55;100287.00;;;2.71;100.00
69153;BME280;56261;51.580;4.578;2023-01-19T00:48:21;100283.25;;;2.74;100.00
69153;BME280;56261;51.580;4.578;2023-01-19T00:50:49;100294.09;;;2.80;100.00
69153;BME280;56261;51.580;4.578;2023-01-19T00:53:15;100299.25;;;2.82;100.00
69153;BME280;56261;51.580;4.578;2023-01-19T00:55:40;100304.34;;;2.83;100.00
69153;BME280;56261;51.580;4.578;2023-01-19T00:58:06;100320.41;;;2.70;100.00
69153;BME280;56261;51.580;4.578;2023-01-19T01:00:31;100329.25;;;2.69;100.00
69153;BME280;56261;51.580;4.578;2023-01-19T01:02:56;100334.28;;;2.73;100.00
69153;BME280;56261;51.580;4.578;2023-01-19T01:05:22;100335.03;;;2.63;100.00
69153;BME280;56261;51.580;4.578;2023-01-19T01:07:48;100346.66;;;2.61;100.00
69153;BME280;56261;51.580;4.578;2023-01-19T01:10:19;100351.75;;;2.53;100.00
69153;BME280;56261;51.580;4.578;2023-01-19T01:12:45;100357.59;;;2.56;100.00
69153;BME280;56261;51.580;4.578;2023-01-19T01:15:12;100361.44;;;2.52;100.00
69153;BME280;56261;51.580;4.578;2023-01-19T01:17:38;100353.19;;;2.36;100.00
69153;BME280;56261;51.580;4.578;2023-01-19T01:20:22;100358.16;;;2.39;100.00
69153;BME280;56261;51.580;4.578;2023-01-19T01:22:51;100368.00;;;2.37;100.00
69153;BME280;56261;51.580;4.578;2023-01-19T01:25:18;100367.31;;;2.35;100.00
69153;BME280;56261;51.580;4.578;2023-01-19T01:27:44;100364.91;;;2.32;100.00
69153;BME280;56261;51.580;4.578;2023-01-19T01:30:12;100365.63;;;2.34;100.00
69153;BME280;56261;51.580;4.578;2023-01-19T01:32:38;100364.91;;;2.32;100.00
69153;BME280;56261;51.580;4.578;2023-01-19T01:35:04;100379.03;;;2.52;100.00
69153;BME280;56261;51.580;4.578;2023-01-19T01:37:29;100388.09;;;2.38;100.00
69153;BME280;56261;51.580;4.578;2023-01-19T01:39:55;100388.34;;;2.35;100.00
69153;BME280;56261;51.580;4.578;2023-01-19T01:42:28;100390.66;;;2.28;100.00
69153;BME280;56261;51.580;4.578;2023-01-19T01:45:00;100383.81;;;2.04;100.00
69153;BME280;56261;51.580;4.578;2023-01-19T01:47:43;100394.00;;;1.98;100.00
69153;BME280;56261;51.580;4.578;2023-01-19T01:50:11;100396.53;;;1.99;100.00
69153;BME280;56261;51.580;4.578;2023-01-19T01:52:52;100383.59;;;1.96;100.00
69153;BME280;56261;51.580;4.578;2023-01-19T01:55:20;100384.16;;;2.11;100.00
69153;BME280;56261;51.580;4.578;2023-01-19T01:57:51;100393.72;;;2.12;100.00
69153;BME280;56261;51.580;4.578;2023-01-19T02:00:18;100393.78;;;2.22;100.00
69153;BME280;56261;51.580;4.578;2023-01-19T02:02:44;100398.34;;;2.20;100.00
69153;BME280;56261;51.580;4.578;2023-01-19T02:05:34;100384.75;;;2.15;100.00
69153;BME280;56261;51.580;4.578;2023-01-19T02:10:47;100386.63;;;2.24;100.00
69153;BME280;56261;51.580;4.578;2023-01-19T02:13:33;100385.91;;;2.22;100.00
69153;BME280;56261;51.580;4.578;2023-01-19T02:16:01;100379.81;;;2.21;100.00
69153;BME280;56261;51.580;4.578;2023-01-19T02:18:29;100382.88;;;2.26;100.00
69153;BME280;56261;51.580;4.578;2023-01-19T02:23:40;100390.78;;;2.26;100.00
69153;BME280;56261;51.580;4.578;2023-01-19T02:26:08;100412.88;;;2.35;100.00
69153;BME280;56261;51.580;4.578;2023-01-19T02:28:38;100431.94;;;2.48;100.00
69153;BME280;56261;51.580;4.578;2023-01-19T02:31:05;100451.00;;;2.08;100.00
69153;BME280;56261;51.580;4.578;2023-01-19T02:33:31;100453.34;;;1.79;100.00
69153;BME280;56261;51.580;4.578;2023-01-19T02:35:56;100459.94;;;1.62;100.00
69153;BME280;56261;51.580;4.578;2023-01-19T02:38:24;100452.66;;;1.66;100.00
69153;BME280;56261;51.580;4.578;2023-01-19T02:40:54;100455.06;;;1.35;100.00
69153;BME280;56261;51.580;4.578;2023-01-19T02:43:20;100462.13;;;1.23;100.00
69153;BME280;56261;51.580;4.578;2023-01-19T02:45:47;100462.94;;;1.13;100.00
69153;BME280;56261;51.580;4.578;2023-01-19T02:48:15;100460.69;;;1.08;100.00
69153;BME280;56261;51.580;4.578;2023-01-19T02:50:44;100476.53;;;1.07;100.00
69153;BME280;56261;51.580;4.578;2023-01-19T02:58:53;100467.44;;;0.88;100.00
69153;BME280;56261;51.580;4.578;2023-01-19T03:01:50;100475.06;;;0.91;100.00
69153;BME280;56261;51.580;4.578;2023-01-19T03:07:12;100455.78;;;1.03;100.00
69153;BME280;56261;51.580;4.578;2023-01-19T03:09:48;100450.63;;;0.91;100.00
69153;BME280;56261;51.580;4.578;2023-01-19T03:12:47;100441.69;;;1.04;100.00
69153;BME280;56261;51.580;4.578;2023-01-19T03:15:24;100437.16;;;1.18;100.00
69153;BME280;56261;51.580;4.578;2023-01-19T03:17:52;100437.16;;;1.07;100.00
69153;BME280;56261;51.580;4.578;2023-01-19T03:20:21;100442.53;;;1.16;100.00
69153;BME280;56261;51.580;4.578;2023-01-19T03:22:52;100442.75;;;1.24;100.00
69153;BME280;56261;51.580;4.578;2023-01-19T03:25:20;100457.34;;;1.29;100.00
69153;BME280;56261;51.580;4.578;2023-01-19T03:27:48;100459.69;;;1.09;100.00
69153;BME280;56261;51.580;4.578;2023-01-19T03:30:21;100457.44;;;1.27;100.00
69153;BME280;56261;51.580;4.578;2023-01-19T03:32:54;100468.94;;;1.37;100.00
69153;BME280;56261;51.580;4.578;2023-01-19T03:35:22;100462.72;;;1.50;100.00
69153;BME280;56261;51.580;4.578;2023-01-19T03:37:51;100469.72;;;1.60;100.00
69153;BME280;56261;51.580;4.578;2023-01-19T03:40:19;100467.34;;;1.69;100.00
69153;BME280;56261;51.580;4.578;2023-01-19T03:42:45;100474.03;;;1.73;100.00
69153;BME280;56261;51.580;4.578;2023-01-19T03:45:13;100468.88;;;1.71;100.00
69153;BME280;56261;51.580;4.578;2023-01-19T03:47:39;100468.41;;;1.77;100.00
69153;BME280;56261;51.580;4.578;2023-01-19T03:50:08;100480.25;;;1.72;100.00
69153;BME280;56261;51.580;4.578;2023-01-19T03:52:37;100494.94;;;1.52;100.00
69153;BME280;56261;51.580;4.578;2023-01-19T03:55:04;100510.13;;;1.37;100.00
69153;BME280;56261;51.580;4.578;2023-01-19T03:57:30;100514.78;;;1.33;100.00
69153;BME280;56261;51.580;4.578;2023-01-19T03:59:56;100537.94;;;1.17;100.00
69153;BME280;56261;51.580;4.578;2023-01-19T04:02:22;100541.47;;;1.04;100.00
69153;BME280;56261;51.580;4.578;2023-01-19T04:04:48;100527.41;;;1.06;100.00
69153;BME280;56261;51.580;4.578;2023-01-19T04:07:13;100506.25;;;1.07;100.00
69153;BME280;56261;51.580;4.578;2023-01-19T04:09:39;100507.22;;;1.06;100.00
69153;BME280;56261;51.580;4.578;2023-01-19T04:12:05;100490.63;;;1.06;100.00
69153;BME280;56261;51.580;4.578;2023-01-19T04:14:30;100483.00;;;1.14;100.00
69153;BME280;56261;51.580;4.578;2023-01-19T04:16:56;100480.25;;;1.15;100.00
69153;BME280;56261;51.580;4.578;2023-01-19T04:19:21;100471.44;;;1.28;100.00
69153;BME280;56261;51.580;4.578;2023-01-19T04:21:47;100468.56;;;1.31;100.00
69153;BME280;56261;51.580;4.578;2023-01-19T04:24:13;100460.31;;;1.35;100.00
69153;BME280;56261;51.580;4.578;2023-01-19T04:26:39;100452.81;;;1.31;100.00
69153;BME280;56261;51.580;4.578;2023-01-19T04:29:04;100454.59;;;1.30;100.00
69153;BME280;56261;51.580;4.578;2023-01-19T04:31:30;100451.97;;;1.30;100.00
69153;BME280;56261;51.580;4.578;2023-01-19T04:33:55;100452.34;;;1.26;100.00
69153;BME280;56261;51.580;4.578;2023-01-19T04:36:21;100462.22;;;1.22;100.00
69153;BME280;56261;51.580;4.578;2023-01-19T04:38:46;100468.19;;;1.01;100.00
69153;BME280;56261;51.580;4.578;2023-01-19T04:41:12;100464.59;;;1.14;100.00
69153;BME280;56261;51.580;4.578;2023-01-19T04:43:38;100466.19;;;1.16;100.00
69153;BME280;56261;51.580;4.578;2023-01-19T04:46:03;100472.63;;;1.12;100.00
69153;BME280;56261;51.580;4.578;2023-01-19T04:48:29;100463.56;;;1.16;100.00
69153;BME280;56261;51.580;4.578;2023-01-19T04:50:54;100483.84;;;1.14;100.00
69153;BME280;56261;51.580;4.578;2023-01-19T04:53:20;100495.63;;;1.09;100.00
69153;BME280;56261;51.580;4.578;2023-01-19T04:55:45;100499.25;;;1.08;100.00
69153;BME280;56261;51.580;4.578;2023-01-19T04:58:11;100504.97;;;1.13;100.00
69153;BME280;56261;51.580;4.578;2023-01-19T05:00:36;100484.22;;;1.21;100.00
69153;BME280;56261;51.580;4.578;2023-01-19T05:03:02;100488.38;;;1.12;100.00
69153;BME280;56261;51.580;4.578;2023-01-19T05:05:28;100494.81;;;1.08;100.00
69153;BME280;56261;51.580;4.578;2023-01-19T05:07:53;100489.94;;;1.15;100.00
69153;BME280;56261;51.580;4.578;2023-01-19T05:10:19;100486.84;;;1.21;100.00
69153;BME280;56261;51.580;4.578;2023-01-19T05:12:45;100478.34;;;1.40;100.00
69153;BME280;56261;51.580;4.578;2023-01-19T05:15:10;100489.34;;;1.34;100.00
69153;BME280;56261;51.580;4.578;2023-01-19T05:17:36;100476.56;;;1.40;100.00
69153;BME280;56261;51.580;4.578;2023-01-19T05:20:02;100479.91;;;1.31;100.00
69153;BME280;56261;51.580;4.578;2023-01-19T05:22:28;100471.81;;;1.23;100.00
69153;BME280;56261;51.580;4.578;2023-01-19T05:24:53;100487.66;;;1.33;100.00
69153;BME280;56261;51.580;4.578;2023-01-19T05:27:19;100485.03;;;1.44;100.00
69153;BME280;56261;51.580;4.578;2023-01-19T05:29:44;100497.72;;;1.61;100.00
69153;BME280;56261;51.580;4.578;2023-01-19T05:32:10;100481.22;;;1.71;100.00
69153;BME280;56261;51.580;4.578;2023-01-19T05:34:36;100482.88;;;1.72;100.00
69153;BME280;56261;51.580;4.578;2023-01-19T05:37:01;100486.22;;;1.74;100.00
69153;BME280;56261;51.580;4.578;2023-01-19T05:39:26;100489.34;;;1.79;100.00
69153;BME280;56261;51.580;4.578;2023-01-19T05:41:52;100491.81;;;1.80;100.00
69153;BME280;56261;51.580;4.578;2023-01-19T05:44:18;100490.16;;;1.91;100.00
69153;BME280;56261;51.580;4.578;2023-01-19T05:46:43;100490.38;;;1.99;100.00
69153;BME280;56261;51.580;4.578;2023-01-19T05:49:10;100486.69;;;1.90;100.00
69153;BME280;56261;51.580;4.578;2023-01-19T05:51:36;100494.69;;;1.89;100.00
69153;BME280;56261;51.580;4.578;2023-01-19T05:54:11;100492.78;;;1.79;100.00
69153;BME280;56261;51.580;4.578;2023-01-19T05:56:37;100500.22;;;1.74;100.00
69153;BME280;56261;51.580;4.578;2023-01-19T05:59:04;100503.06;;;1.71;100.00
69153;BME280;56261;51.580;4.578;2023-01-19T06:01:29;100499.25;;;1.75;100.00
69153;BME280;56261;51.580;4.578;2023-01-19T06:03:55;100502.25;;;1.71;100.00
69153;BME280;56261;51.580;4.578;2023-01-19T06:06:20;100510.03;;;1.61;100.00
69153;BME280;56261;51.580;4.578;2023-01-19T06:08:46;100503.19;;;1.58;100.00
69153;BME280;56261;51.580;4.578;2023-01-19T06:11:11;100507.41;;;1.61;100.00
69153;BME280;56261;51.580;4.578;2023-01-19T06:13:37;100508.44;;;1.58;100.00
69153;BME280;56261;51.580;4.578;2023-01-19T06:16:06;100510.97;;;1.60;100.00
69153;BME280;56261;51.580;4.578;2023-01-19T06:18:32;100516.81;;;1.63;100.00
69153;BME280;56261;51.580;4.578;2023-01-19T06:20:57;100514.78;;;1.56;100.00
69153;BME280;56261;51.580;4.578;2023-01-19T06:23:30;100523.16;;;1.61;100.00
69153;BME280;56261;51.580;4.578;2023-01-19T06:25:56;100518.47;;;1.64;100.00
69153;BME280;56261;51.580;4.578;2023-01-19T06:28:22;100539.41;;;1.66;100.00
69153;BME280;56261;51.580;4.578;2023-01-19T06:30:48;100534.25;;;1.64;100.00
69153;BME280;56261;51.580;4.578;2023-01-19T06:33:15;100541.41;;;1.62;100.00
69153;BME280;56261;51.580;4.578;2023-01-19T06:35:45;100542.50;;;1.71;100.00
69153;BME280;56261;51.580;4.578;2023-01-19T06:38:11;100549.44;;;1.72;100.00
69153;BME280;56261;51.580;4.578;2023-01-19T06:40:38;100554.34;;;1.77;100.00
69153;BME280;56261;51.580;4.578;2023-01-19T06:43:03;100551.47;;;1.80;100.00
69153;BME280;56261;51.580;4.578;2023-01-19T06:45:30;100565.69;;;1.77;100.00
69153;BME280;56261;51.580;4.578;2023-01-19T06:47:55;100561.03;;;1.81;100.00
69153;BME280;56261;51.580;4.578;2023-01-19T06:50:20;100567.97;;;1.82;100.00
69153;BME280;56261;51.580;4.578;2023-01-19T06:52:49;100566.41;;;1.91;100.00
69153;BME280;56261;51.580;4.578;2023-01-19T06:55:15;100579.44;;;1.92;100.00
69153;BME280;56261;51.580;4.578;2023-01-19T06:57:40;100571.78;;;1.89;100.00
69153;BME280;56261;51.580;4.578;2023-01-19T07:00:06;100572.84;;;1.86;100.00
69153;BME280;56261;51.580;4.578;2023-01-19T07:02:36;100575.22;;;2.01;100.00
69153;BME280;56261;51.580;4.578;2023-01-19T07:05:02;100578.09;;;1.98;100.00
69153;BME280;56261;51.580;4.578;2023-01-19T07:07:27;100577.38;;;1.96;100.00
69153;BME280;56261;51.580;4.578;2023-01-19T07:09:53;100581.72;;;1.85;100.00
69153;BME280;56261;51.580;4.578;2023-01-19T07:12:18;100582.91;;;1.93;100.00
69153;BME280;56261;51.580;4.578;2023-01-19T07:14:43;100584.69;;;1.92;100.00
69153;BME280;56261;51.580;4.578;2023-01-19T07:17:09;100586.97;;;1.97;100.00
69153;BME280;56261;51.580;4.578;2023-01-19T07:19:35;100597.34;;;1.98;100.00
69153;BME280;56261;51.580;4.578;2023-01-19T07:22:00;100597.13;;;1.90;100.00
69153;BME280;56261;51.580;4.578;2023-01-19T07:24:27;100600.47;;;1.92;100.00
69153;BME280;56261;51.580;4.578;2023-01-19T07:26:55;100612.66;;;1.93;100.00
69153;BME280;56261;51.580;4.578;2023-01-19T07:29:20;100607.16;;;1.96;100.00
69153;BME280;56261;51.580;4.578;2023-01-19T07:31:45;100607.03;;;1.86;100.00
69153;BME280;56261;51.580;4.578;2023-01-19T07:34:13;100614.31;;;1.83;100.00
69153;BME280;56261;51.580;4.578;2023-01-19T07:36:38;100611.22;;;1.78;100.00
69153;BME280;56261;51.580;4.578;2023-01-19T07:39:03;100627.97;;;1.77;100.00
69153;BME280;56261;51.580;4.578;2023-01-19T07:41:29;100614.91;;;1.75;100.00
69153;BME280;56261;51.580;4.578;2023-01-19T07:43:54;100628.19;;;1.74;100.00
69153;BME280;56261;51.580;4.578;2023-01-19T07:46:19;100630.22;;;1.81;100.00
69153;BME280;56261;51.580;4.578;2023-01-19T07:48:45;100627.09;;;1.76;100.00
69153;BME280;56261;51.580;4.578;2023-01-19T07:51:12;100636.31;;;1.71;100.00
69153;BME280;56261;51.580;4.578;2023-01-19T07:53:42;100635.59;;;1.69;100.00
69153;BME280;56261;51.580;4.578;2023-01-19T07:56:08;100641.09;;;1.65;100.00
69153;BME280;56261;51.580;4.578;2023-01-19T07:58:34;100649.81;;;1.66;100.00
69153;BME280;56261;51.580;4.578;2023-01-19T08:00:59;100651.44;;;1.56;100.00
69153;BME280;56261;51.580;4.578;2023-01-19T08:03:29;100650.47;;;1.45;100.00
69153;BME280;56261;51.580;4.578;2023-01-19T08:05:54;100656.19;;;1.39;100.00
69153;BME280;56261;51.580;4.578;2023-01-19T08:08:21;100649.03;;;1.41;100.00
69153;BME280;56261;51.580;4.578;2023-01-19T08:10:50;100653.53;;;1.28;100.00
69153;BME280;56261;51.580;4.578;2023-01-19T08:13:16;100654.47;;;1.27;100.00
69153;BME280;56261;51.580;4.578;2023-01-19T08:15:42;100667.84;;;1.24;100.00
69153;BME280;56261;51.580;4.578;2023-01-19T08:18:08;100666.38;;;1.20;100.00
69153;BME280;56261;51.580;4.578;2023-01-19T08:20:35;100667.78;;;1.13;100.00
69153;BME280;56261;51.580;4.578;2023-01-19T08:23:01;100672.13;;;1.25;100.00
69153;BME280;56261;51.580;4.578;2023-01-19T08:25:33;100673.13;;;1.35;100.00
69153;BME280;56261;51.580;4.578;2023-01-19T08:27:59;100676.00;;;1.32;100.00
69153;BME280;56261;51.580;4.578;2023-01-19T08:30:25;100679.75;;;1.52;100.00
69153;BME280;56261;51.580;4.578;2023-01-19T08:32:52;100688.34;;;1.43;100.00
69153;BME280;56261;51.580;4.578;2023-01-19T08:35:19;100693.59;;;1.43;100.00
69153;BME280;56261;51.580;4.578;2023-01-19T08:37:44;100699.34;;;1.48;100.00
69153;BME280;56261;51.580;4.578;2023-01-19T08:40:10;100679.72;;;1.41;100.00
69153;BME280;56261;51.580;4.578;2023-01-19T08:42:35;100695.28;;;1.55;100.00
69153;BME280;56261;51.580;4.578;2023-01-19T08:45:01;100696.50;;;1.62;100.00
69153;BME280;56261;51.580;4.578;2023-01-19T08:47:26;100703.09;;;1.68;100.00
69153;BME280;56261;51.580;4.578;2023-01-19T08:49:51;100707.97;;;1.61;100.00
69153;BME280;56261;51.580;4.578;2023-01-19T08:52:17;100707.84;;;1.63;100.00
69153;BME280;56261;51.580;4.578;2023-01-19T08:54:42;100706.06;;;1.63;100.00
69153;BME280;56261;51.580;4.578;2023-01-19T08:57:08;100707.16;;;1.61;100.00
69153;BME280;56261;51.580;4.578;2023-01-19T08:59:33;100706.91;;;1.64;100.00
69153;BME280;56261;51.580;4.578;2023-01-19T09:01:58;100713.66;;;1.79;100.00
69153;BME280;56261;51.580;4.578;2023-01-19T09:04:24;100715.22;;;1.93;100.00
69153;BME280;56261;51.580;4.578;2023-01-19T09:06:49;100714.88;;;1.98;100.00
69153;BME280;56261;51.580;4.578;2023-01-19T09:09:15;100726.47;;;2.06;100.00
69153;BME280;56261;51.580;4.578;2023-01-19T09:11:40;100718.84;;;2.15;100.00
69153;BME280;56261;51.580;4.578;2023-01-19T09:14:06;100722.78;;;2.20;100.00
69153;BME280;56261;51.580;4.578;2023-01-19T09:16:32;100726.59;;;2.27;100.00
69153;BME280;56261;51.580;4.578;2023-01-19T09:18:57;100726.84;;;2.58;100.00
69153;BME280;56261;51.580;4.578;2023-01-19T09:21:23;100728.53;;;2.48;100.00
69153;BME280;56261;51.580;4.578;2023-01-19T09:23:48;100725.16;;;2.80;100.00
69153;BME280;56261;51.580;4.578;2023-01-19T09:26:13;100729.59;;;2.79;100.00
69153;BME280;56261;51.580;4.578;2023-01-19T09:28:39;100734.59;;;2.82;100.00
69153;BME280;56261;51.580;4.578;2023-01-19T09:31:06;100738.19;;;2.70;100.00
69153;BME280;56261;51.580;4.578;2023-01-19T09:33:32;100747.19;;;2.56;100.00
69153;BME280;56261;51.580;4.578;2023-01-19T09:35:57;100729.72;;;2.66;100.00
69153;BME280;56261;51.580;4.578;2023-01-19T09:38:23;100738.34;;;2.68;100.00
69153;BME280;56261;51.580;4.578;2023-01-19T09:40:52;100733.88;;;2.91;100.00
69153;BME280;56261;51.580;4.578;2023-01-19T09:43:43;100730.22;;;3.15;100.00
69153;BME280;56261;51.580;4.578;2023-01-19T09:46:21;100734.22;;;2.98;100.00
69153;BME280;56261;51.580;4.578;2023-01-19T09:48:57;100744.19;;;2.61;100.00
69153;BME280;56261;51.580;4.578;2023-01-19T09:51:30;100742.06;;;2.55;100.00
69153;BME280;56261;51.580;4.578;2023-01-19T09:54:14;100754.16;;;2.46;100.00
69153;BME280;56261;51.580;4.578;2023-01-19T09:56:41;100746.59;;;2.53;100.00
69153;BME280;56261;51.580;4.578;2023-01-19T09:59:30;100759.06;;;2.39;100.00
69153;BME280;56261;51.580;4.578;2023-01-19T10:10:26;100763.59;;;2.48;100.00
69153;BME280;56261;51.580;4.578;2023-01-19T10:13:09;100770.66;;;2.48;100.00
69153;BME280;56261;51.580;4.578;2023-01-19T10:18:39;100773.88;;;2.63;100.00
69153;BME280;56261;51.580;4.578;2023-01-19T10:21:23;100776.50;;;2.74;100.00
69153;BME280;56261;51.580;4.578;2023-01-19T10:23:51;100778.31;;;2.74;100.00
69153;BME280;56261;51.580;4.578;2023-01-19T10:26:31;100782.63;;;2.75;100.00
69153;BME280;56261;51.580;4.578;2023-01-19T10:31:48;100780.56;;;2.78;100.00
69153;BME280;56261;51.580;4.578;2023-01-19T10:34:16;100786.91;;;2.76;100.00
69153;BME280;56261;51.580;4.578;2023-01-19T10:36:46;100785.72;;;2.80;100.00
69153;BME280;56261;51.580;4.578;2023-01-19T10:39:15;100776.63;;;2.84;100.00
69153;BME280;56261;51.580;4.578;2023-01-19T10:41:51;100782.72;;;2.84;100.00
69153;BME280;56261;51.580;4.578;2023-01-19T10:46:50;100781.03;;;2.95;100.00
69153;BME280;56261;51.580;4.578;2023-01-19T10:49:35;100773.97;;;2.95;100.00
69153;BME280;56261;51.580;4.578;2023-01-19T10:52:02;100770.75;;;2.91;100.00
69153;BME280;56261;51.580;4.578;2023-01-19T10:54:30;100768.56;;;2.97;100.00
69153;BME280;56261;51.580;4.578;2023-01-19T10:56:58;100767.25;;;3.02;100.00
69153;BME280;56261;51.580;4.578;2023-01-19T11:02:30;100770.72;;;3.03;100.00
69153;BME280;56261;51.580;4.578;2023-01-19T11:04:58;100767.50;;;3.10;100.00
69153;BME280;56261;51.580;4.578;2023-01-19T11:07:33;100773.34;;;3.14;100.00
69153;BME280;56261;51.580;4.578;2023-01-19T11:12:45;100770.22;;;3.20;100.00
69153;BME280;56261;51.580;4.578;2023-01-19T11:15:47;100777.16;;;3.21;100.00
69153;BME280;56261;51.580;4.578;2023-01-19T11:18:05;100782.91;;;3.26;100.00
69153;BME280;56261;51.580;4.578;2023-01-19T11:20:51;100778.56;;;3.25;100.00
69153;BME280;56261;51.580;4.578;2023-01-19T11:25:47;100775.69;;;3.40;100.00
69153;BME280;56261;51.580;4.578;2023-01-19T11:28:32;100769.53;;;3.39;100.00
69153;BME280;56261;51.580;4.578;2023-01-19T11:31:00;100772.31;;;3.38;100.00
69153;BME280;56261;51.580;4.578;2023-01-19T11:38:44;100771.06;;;3.53;100.00
69153;BME280;56261;51.580;4.578;2023-01-19T11:41:22;100761.25;;;3.55;100.00
69153;BME280;56261;51.580;4.578;2023-01-19T11:43:52;100775.38;;;3.54;100.00
69153;BME280;56261;51.580;4.578;2023-01-19T11:46:20;100770.81;;;3.56;100.00
69153;BME280;56261;51.580;4.578;2023-01-19T11:48:56;100773.19;;;3.59;100.00
69153;BME280;56261;51.580;4.578;2023-01-19T11:51:34;100769.44;;;3.73;100.00
69153;BME280;56261;51.580;4.578;2023-01-19T11:54:01;100766.97;;;3.81;100.00
69153;BME280;56261;51.580;4.578;2023-01-19T11:56:33;100770.59;;;3.80;100.00
69153;BME280;56261;51.580;4.578;2023-01-19T11:59:01;100772.41;;;3.80;100.00
69153;BME280;56261;51.580;4.578;2023-01-19T12:01:30;100759.84;;;3.72;100.00
69153;BME280;56261;51.580;4.578;2023-01-19T12:06:33;100764.38;;;3.70;100.00
69153;BME280;56261;51.580;4.578;2023-01-19T12:09:05;100763.78;;;3.78;100.00
69153;BME280;56261;51.580;4.578;2023-01-19T12:11:42;100756.81;;;3.77;100.00
69153;BME280;56261;51.580;4.578;2023-01-19T12:14:21;100752.13;;;3.80;100.00
69153;BME280;56261;51.580;4.578;2023-01-19T12:16:50;100749.53;;;3.90;100.00
69153;BME280;56261;51.580;4.578;2023-01-19T12:19:22;100754.09;;;3.88;100.00
69153;BME280;56261;51.580;4.578;2023-01-19T12:21:49;100757.97;;;3.84;100.00
69153;BME280;56261;51.580;4.578;2023-01-19T12:24:51;100757.91;;;3.95;100.00
69153;BME280;56261;51.580;4.578;2023-01-19T12:27:40;100754.69;;;3.91;100.00
69153;BME280;56261;51.580;4.578;2023-01-19T12:30:17;100761.31;;;3.86;100.00
69153;BME280;56261;51.580;4.578;2023-01-19T12:32:44;100757.84;;;3.85;100.00
69153;BME280;56261;51.580;4.578;2023-01-19T12:39:17;100757.13;;;3.83;100.00
69153;BME280;56261;51.580;4.578;2023-01-19T12:43:43;100754.94;;;4.09;100.00
69153;BME280;56261;51.580;4.578;2023-01-19T12:46:28;100757.91;;;3.95;100.00
69153;BME280;56261;51.580;4.578;2023-01-19T12:48:55;100750.91;;;3.84;100.00
69153;BME280;56261;51.580;4.578;2023-01-19T12:51:27;100752.94;;;4.02;100.00
69153;BME280;56261;51.580;4.578;2023-01-19T12:53:55;100751.47;;;4.09;100.00
69153;BME280;56261;51.580;4.578;2023-01-19T12:56:31;100746.47;;;4.36;100.00
69153;BME280;56261;51.580;4.578;2023-01-19T12:58:58;100754.09;;;4.61;100.00
69153;BME280;56261;51.580;4.578;2023-01-19T13:01:24;100737.47;;;4.79;100.00
69153;BME280;56261;51.580;4.578;2023-01-19T13:04:00;100726.66;;;5.02;100.00
69153;BME280;56261;51.580;4.578;2023-01-19T13:09:34;100726.00;;;5.10;100.00
69153;BME280;56261;51.580;4.578;2023-01-19T13:14:39;100721.53;;;5.10;100.00
69153;BME280;56261;51.580;4.578;2023-01-19T13:17:25;100720.84;;;5.08;100.00
69153;BME280;56261;51.580;4.578;2023-01-19T13:20:00;100725.16;;;5.19;100.00
69153;BME280;56261;51.580;4.578;2023-01-19T13:25:12;100727.81;;;5.68;100.00
69153;BME280;56261;51.580;4.578;2023-01-19T13:27:46;100725.16;;;5.48;100.00
69153;BME280;56261;51.580;4.578;2023-01-19T13:30:14;100728.34;;;5.13;100.00
69153;BME280;56261;51.580;4.578;2023-01-19T13:32:42;100730.97;;;4.93;100.00
69153;BME280;56261;51.580;4.578;2023-01-19T13:35:13;100730.75;;;4.75;100.00
69153;BME280;56261;51.580;4.578;2023-01-19T13:37:43;100736.03;;;4.66;100.00
69153;BME280;56261;51.580;4.578;2023-01-19T13:40:22;100738.13;;;4.62;100.00
69153;BME280;56261;51.580;4.578;2023-01-19T13:42:50;100742.81;;;4.58;100.00
69153;BME280;56261;51.580;4.578;2023-01-19T13:47:44;100751.44;;;4.61;100.00
69153;BME280;56261;51.580;4.578;2023-01-19T13:50:31;100750.06;;;4.66;100.00
69153;BME280;56261;51.580;4.578;2023-01-19T13:52:57;100747.47;;;4.76;100.00
69153;BME280;56261;51.580;4.578;2023-01-19T13:55:25;100751.22;;;4.73;100.00
69153;BME280;56261;51.580;4.578;2023-01-19T13:57:51;100740.75;;;4.62;100.00
69153;BME280;56261;51.580;4.578;2023-01-19T14:00:21;100751.97;;;4.54;100.00
69153;BME280;56261;51.580;4.578;2023-01-19T14:02:57;100742.41;;;4.53;100.00